createdAt,value
2019-06-07T00:03:29.545Z,13.00
2019-06-07T00:08:24.818Z,12.90
2019-06-07T00:13:17.120Z,12.90
2019-06-07T00:18:11.155Z,12.90
2019-06-07T00:23:05.328Z,12.90
2019-06-07T00:27:59.824Z,12.80
2019-06-07T00:32:53.263Z,12.70
2019-06-07T00:37:46.698Z,12.70
2019-06-07T00:42:39.888Z,12.60
2019-06-07T00:47:33.188Z,12.60
2019-06-07T00:57:24.112Z,12.60
2019-06-07T01:02:19.248Z,12.80
2019-06-07T01:07:13.215Z,12.80
2019-06-07T01:12:06.619Z,12.70
2019-06-07T01:17:26.542Z,12.70
2019-06-07T01:22:05.028Z,12.60
2019-06-07T01:26:59.392Z,12.60
2019-06-07T01:31:52.834Z,12.60
2019-06-07T01:36:46.264Z,12.60
2019-06-07T01:41:41.413Z,12.50
2019-06-07T01:46:34.810Z,12.40
2019-06-07T01:51:30.678Z,12.40
2019-06-07T01:56:26.541Z,12.30
2019-06-07T02:01:19.650Z,12.20
2019-06-07T02:06:13.615Z,12.20
2019-06-07T02:11:06.681Z,12.20
2019-06-07T02:15:59.729Z,12.20
2019-06-07T02:20:53.154Z,12.10
2019-06-07T02:25:50.433Z,12.10
2019-06-07T02:30:50.986Z,12.10
2019-06-07T02:35:40.332Z,12.00
2019-06-07T02:40:37.240Z,12.00
2019-06-07T02:45:35.511Z,11.90
2019-06-07T02:50:25.585Z,11.90
2019-06-07T02:55:18.618Z,11.90
2019-06-07T03:00:40.814Z,11.70
2019-06-07T03:05:08.647Z,11.80
2019-06-07T03:10:03.289Z,11.70
2019-06-07T03:14:59.555Z,11.70
2019-06-07T03:19:55.700Z,11.60
2019-06-07T03:24:50.444Z,11.60
2019-06-07T03:29:43.827Z,11.70
2019-06-07T03:34:42.770Z,11.70
2019-06-07T03:39:33.849Z,11.60
2019-06-07T03:44:32.972Z,11.70
2019-06-07T03:49:25.035Z,11.70
2019-06-07T03:54:18.303Z,11.80
2019-06-07T03:59:12.158Z,11.80
2019-06-07T04:04:05.613Z,11.90
2019-06-07T04:08:59.279Z,11.80
2019-06-07T04:13:52.825Z,11.80
2019-06-07T04:18:48.161Z,11.80
2019-06-07T04:23:45.514Z,11.80
2019-06-07T04:33:34.974Z,11.90
2019-06-07T04:38:31.976Z,11.80
2019-06-07T04:43:27.070Z,11.80
2019-06-07T04:48:21.369Z,12.00
2019-06-07T04:53:15.095Z,12.40
2019-06-07T04:58:08.701Z,12.70
2019-06-07T05:03:02.722Z,14.00
2019-06-07T05:07:56.209Z,14.10
2019-06-07T05:12:49.812Z,14.60
2019-06-07T05:17:45.111Z,15.80
2019-06-07T05:22:44.882Z,16.80
2019-06-07T05:27:36.447Z,17.40
2019-06-07T05:32:32.911Z,16.00
2019-06-07T05:37:26.091Z,15.90
2019-06-07T05:42:19.545Z,16.20
2019-06-07T05:47:13.248Z,16.20
2019-06-07T05:52:06.344Z,16.80
2019-06-07T05:56:59.824Z,17.60
2019-06-07T06:02:02.885Z,17.80
2019-06-07T06:06:50.521Z,17.20
2019-06-07T06:11:58.650Z,17.70
2019-06-07T06:16:39.738Z,17.00
2019-06-07T06:21:34.082Z,17.30
2019-06-07T06:26:27.925Z,16.60
2019-06-07T06:31:23.033Z,16.50
2019-06-07T06:36:16.769Z,16.20
2019-06-07T06:41:15.982Z,16.30
2019-06-07T06:46:05.829Z,16.50
2019-06-07T06:50:59.590Z,17.00
2019-06-07T06:55:52.736Z,17.00
2019-06-07T07:00:56.825Z,18.50
2019-06-07T07:05:48.670Z,17.80
2019-06-07T07:10:43.102Z,18.30
2019-06-07T07:15:36.855Z,17.20
2019-06-07T07:20:29.945Z,18.10
2019-06-07T07:25:23.249Z,19.60
2019-06-07T07:30:36.649Z,21.10
2019-06-07T07:35:18.454Z,21.00
2019-06-07T07:40:55.603Z,21.40
2019-06-07T07:45:07.107Z,21.20
2019-06-07T07:50:00.184Z,21.30
2019-06-07T07:54:57.805Z,21.80
2019-06-07T08:00:06.168Z,21.40
2019-06-07T08:05:13.477Z,21.30
2019-06-07T08:09:39.539Z,22.10
2019-06-07T08:14:33.309Z,21.60
2019-06-07T08:19:26.364Z,21.20
2019-06-07T08:24:19.974Z,22.90
2019-06-07T08:29:13.082Z,23.30
2019-06-07T08:34:06.104Z,22.70
2019-06-07T08:39:06.807Z,23.50
2019-06-07T08:43:56.812Z,24.50
2019-06-07T08:48:51.228Z,23.90
2019-06-07T08:54:02.452Z,23.70
2019-06-07T08:58:40.382Z,23.70
2019-06-07T09:03:34.012Z,23.90
2019-06-07T09:08:30.824Z,24.00
2019-06-07T09:13:22.789Z,23.70
2019-06-07T09:18:42.237Z,23.20
2019-06-07T09:23:16.990Z,23.60
2019-06-07T09:28:15.789Z,24.00
2019-06-07T09:33:05.735Z,24.00
2019-06-07T09:38:18.187Z,25.30
2019-06-07T09:43:37.988Z,23.30
2019-06-07T09:47:48.944Z,23.90
2019-06-07T09:52:57.990Z,24.40
2019-06-07T09:57:37.632Z,24.20
2019-06-07T10:02:31.068Z,24.50
2019-06-07T10:07:31.790Z,24.10
2019-06-07T10:12:20.030Z,24.10
2019-06-07T10:17:13.345Z,23.80
2019-06-07T10:22:07.814Z,24.30
2019-06-07T10:27:01.818Z,23.10
2019-06-07T10:31:55.460Z,23.40
2019-06-07T10:36:48.995Z,23.30
2019-06-07T10:41:42.451Z,22.80
2019-06-07T10:46:36.015Z,22.90
2019-06-07T10:51:29.321Z,23.10
2019-06-07T10:56:22.882Z,23.00
2019-06-07T11:01:16.454Z,22.80
2019-06-07T11:06:10.188Z,23.00
2019-06-07T11:11:03.876Z,22.70
2019-06-07T11:15:57.587Z,22.90
2019-06-07T11:20:51.203Z,23.30
2019-06-07T11:25:44.737Z,23.30
2019-06-07T11:30:39.528Z,23.20
2019-06-07T11:35:32.926Z,22.90
2019-06-07T11:40:34.298Z,23.60
2019-06-07T11:45:21.926Z,23.30
2019-06-07T11:50:15.708Z,24.00
2019-06-07T11:55:11.377Z,24.20
2019-06-07T12:00:07.375Z,24.30
2019-06-07T12:05:01.021Z,24.10
2019-06-07T12:09:56.674Z,24.20
2019-06-07T12:14:50.438Z,23.90
2019-06-07T12:19:44.298Z,24.20
2019-06-07T12:24:37.894Z,24.60
2019-06-07T12:29:33.934Z,25.00
2019-06-07T12:34:28.627Z,24.60
2019-06-07T12:39:23.008Z,24.90
2019-06-07T12:44:16.651Z,24.90
2019-06-07T12:49:10.355Z,25.10
2019-06-07T12:54:04.084Z,25.00
2019-06-07T12:58:57.474Z,24.20
2019-06-07T13:03:50.753Z,24.40
2019-06-07T13:08:44.319Z,24.40
2019-06-07T13:13:37.799Z,23.80
2019-06-07T13:18:31.284Z,24.30
2019-06-07T13:23:24.555Z,24.50
2019-06-07T13:28:18.984Z,25.00
2019-06-07T13:33:12.547Z,24.70
2019-06-07T13:38:06.495Z,24.30
2019-06-07T13:43:00.022Z,24.10
2019-06-07T13:47:53.352Z,24.50
2019-06-07T13:52:48.505Z,24.80
2019-06-07T13:57:41.985Z,25.00
2019-06-07T14:02:35.675Z,24.70
2019-06-07T14:07:30.064Z,24.50
2019-06-07T14:12:24.153Z,24.40
2019-06-07T14:17:17.642Z,24.60
2019-06-07T14:22:11.219Z,24.50
2019-06-07T14:27:07.871Z,25.30
2019-06-07T14:32:01.699Z,25.20
2019-06-07T14:36:55.025Z,24.80
2019-06-07T14:41:49.026Z,24.90
2019-06-07T14:46:42.497Z,24.80
2019-06-07T14:51:35.994Z,24.80
2019-06-07T14:56:29.951Z,24.90
2019-06-07T15:01:26.162Z,24.70
2019-06-07T15:06:20.016Z,24.50
2019-06-07T15:11:13.919Z,24.60
2019-06-07T15:16:07.416Z,24.60
2019-06-07T15:21:00.877Z,24.40
2019-06-07T15:25:54.254Z,24.00
2019-06-07T15:30:47.830Z,23.40
2019-06-07T15:35:41.270Z,22.70
2019-06-07T15:40:37.534Z,21.30
2019-06-07T15:45:31.466Z,19.40
2019-06-07T15:50:28.632Z,18.70
2019-06-07T15:55:20.717Z,18.90
2019-06-07T16:00:15.552Z,19.20
2019-06-07T16:05:10.460Z,19.70
2019-06-07T16:10:05.689Z,19.80
2019-06-07T16:14:59.106Z,20.40
2019-06-07T16:19:52.527Z,20.20
2019-06-07T16:24:46.050Z,20.20
2019-06-07T16:29:40.567Z,20.20
2019-06-07T16:34:35.016Z,19.80
2019-06-07T16:39:28.377Z,19.50
2019-06-07T16:44:21.901Z,19.20
2019-06-07T16:49:15.392Z,19.20
2019-06-07T16:54:10.635Z,19.20
2019-06-07T16:59:04.410Z,18.80
2019-06-07T17:03:57.844Z,18.20
2019-06-07T17:08:51.579Z,18.00
2019-06-07T17:13:44.919Z,17.90
2019-06-07T17:18:39.030Z,17.90
2019-06-07T17:23:33.892Z,17.90
2019-06-07T17:28:27.502Z,18.00
2019-06-07T17:33:21.025Z,17.80
2019-06-07T17:38:14.606Z,17.60
2019-06-07T17:43:08.079Z,17.70
2019-06-07T17:48:01.485Z,17.70
2019-06-07T17:52:55.001Z,17.80
2019-06-07T17:57:48.798Z,17.70
2019-06-07T18:02:42.720Z,17.60
2019-06-07T18:07:36.567Z,17.50
2019-06-07T18:12:30.087Z,17.50
2019-06-07T18:17:33.954Z,17.40
2019-06-07T18:22:19.207Z,17.40
2019-06-07T18:27:12.667Z,17.30
2019-06-07T18:32:06.130Z,17.30
2019-06-07T18:36:59.763Z,17.30
2019-06-07T18:41:53.390Z,17.50
2019-06-07T18:46:48.052Z,17.60
2019-06-07T18:51:41.610Z,17.70
2019-06-07T18:56:35.166Z,17.70
2019-06-07T19:01:28.517Z,17.60
2019-06-07T19:06:22.140Z,17.40
2019-06-07T19:11:15.608Z,17.30
2019-06-07T19:16:09.026Z,17.30
2019-06-07T19:21:02.694Z,17.20
2019-06-07T19:25:56.445Z,17.20
2019-06-07T19:30:50.806Z,17.10
2019-06-07T19:35:44.361Z,17.00
2019-06-07T19:40:37.934Z,17.00
2019-06-07T19:45:31.860Z,16.90
2019-06-07T19:50:25.721Z,16.90
2019-06-07T19:55:19.328Z,16.90
2019-06-07T20:00:14.426Z,16.90
2019-06-07T20:05:12.208Z,16.80
2019-06-07T20:10:06.994Z,16.80
2019-06-07T20:15:25.194Z,16.80
2019-06-07T20:19:56.313Z,16.80
2019-06-07T20:24:49.783Z,16.70
2019-06-07T20:29:43.191Z,16.70
2019-06-07T20:34:36.779Z,16.70
2019-06-07T20:39:30.250Z,16.60
2019-06-07T20:44:23.673Z,16.60
2019-06-07T20:49:17.300Z,16.30
2019-06-07T20:54:10.697Z,16.30
2019-06-07T20:59:04.825Z,16.20
2019-06-07T21:03:58.988Z,16.00
2019-06-07T21:08:52.640Z,15.90
2019-06-07T21:13:46.084Z,15.90
2019-06-07T21:18:40.679Z,16.00
2019-06-07T21:23:34.014Z,16.00
2019-06-07T21:28:27.420Z,16.10
2019-06-07T21:33:20.993Z,16.20
2019-06-07T21:38:14.502Z,16.30
2019-06-07T21:43:08.740Z,16.40
2019-06-07T21:48:05.220Z,16.40
2019-06-07T21:52:59.504Z,16.40
2019-06-07T21:57:53.300Z,16.40
2019-06-07T22:02:47.051Z,16.40
2019-06-07T22:07:40.690Z,16.30
2019-06-07T22:12:34.244Z,16.30
2019-06-07T22:17:27.821Z,16.30
2019-06-07T22:22:22.234Z,16.40
2019-06-07T22:27:15.748Z,16.50
2019-06-07T22:32:10.824Z,16.40
2019-06-07T22:37:07.128Z,16.40
2019-06-07T22:42:00.766Z,16.40
2019-06-07T22:46:54.313Z,16.40
2019-06-07T22:51:47.837Z,16.40
2019-06-07T22:57:00.936Z,16.40
2019-06-07T23:01:57.356Z,16.40
2019-06-07T23:06:52.543Z,16.40
2019-06-07T23:11:46.126Z,16.40
2019-06-07T23:16:54.422Z,16.40
2019-06-07T23:21:35.214Z,16.40
2019-06-07T23:26:28.754Z,16.50
2019-06-07T23:31:22.293Z,16.50
2019-06-07T23:36:17.239Z,16.20
2019-06-07T23:41:11.488Z,16.00
2019-06-07T23:46:05.097Z,16.00
2019-06-07T23:50:58.602Z,16.00
2019-06-07T23:55:52.168Z,16.10
